Time;durP1;ratioP1;P1;durP2;ratioP2;P2;SDS_P1;SDS_P2;PMS_P1;PMS_P2;Temp;Humidity;BMP_temperature;BMP_pressure;BME280_temperature;BME280_humidity;BME280_pressure;Samples;Min_cycle;Max_cycle;Signal;HPM_P1;HPM_P2
2024/03/13 00:00:57;;;;;;;12.47;4.70;;;8.60;99.90;;;;;;5051754;28;20040;-50
2024/03/13 00:03:23;;;;;;;10.87;5.03;;;8.60;99.90;;;;;;5051909;28;20033;-54
2024/03/13 00:05:50;;;;;;;11.73;4.63;;;8.60;99.90;;;;;;5051736;28;20021;-51
2024/03/13 00:08:15;;;;;;;9.90;4.57;;;8.60;99.90;;;;;;5051843;28;20024;-52
2024/03/13 00:10:41;;;;;;;11.30;4.67;;;8.60;99.90;;;;;;5051342;28;21387;-49
2024/03/13 00:13:07;;;;;;;11.97;4.73;;;8.60;99.90;;;;;;5051732;28;20060;-54
2024/03/13 00:15:35;;;;;;;9.90;3.93;;;8.60;99.90;;;;;;5051679;28;20064;-53
2024/03/13 00:18:03;;;;;;;12.03;4.57;;;8.60;99.90;;;;;;5051926;28;20033;-52
2024/03/13 00:20:30;;;;;;;10.85;4.75;;;8.60;99.90;;;;;;5051446;28;20036;-54
2024/03/13 00:22:56;;;;;;;12.10;4.90;;;8.60;99.90;;;;;;5051549;28;20544;-49
2024/03/13 00:25:22;;;;;;;12.97;4.70;;;8.60;99.90;;;;;;5033378;28;20434;-53
2024/03/13 00:27:48;;;;;;;11.17;4.67;;;8.60;99.90;;;;;;5051612;28;20099;-52
2024/03/13 00:30:15;;;;;;;11.77;4.77;;;8.60;99.90;;;;;;5051008;28;20032;-52
2024/03/13 00:32:42;;;;;;;12.17;4.87;;;8.60;99.90;;;;;;5051548;28;20439;-51
2024/03/13 00:35:08;;;;;;;13.07;5.47;;;8.60;99.90;;;;;;5051069;28;20470;-54
2024/03/13 00:37:34;;;;;;;11.27;4.50;;;8.60;99.90;;;;;;5051308;28;20041;-49
2024/03/13 00:40:01;;;;;;;11.47;4.97;;;8.60;99.90;;;;;;5050991;28;20033;-50
2024/03/13 00:42:26;;;;;;;12.67;4.90;;;8.60;99.90;;;;;;5050985;28;20082;-53
2024/03/13 00:44:53;;;;;;;11.60;5.50;;;8.60;99.90;;;;;;5051052;28;20120;-52
2024/03/13 00:47:21;;;;;;;12.30;4.33;;;8.60;99.90;;;;;;5050325;28;20036;-51
2024/03/13 00:49:47;;;;;;;11.53;4.73;;;8.60;99.90;;;;;;5051042;28;20033;-53
2024/03/13 00:52:12;;;;;;;13.03;5.10;;;8.60;99.90;;;;;;5050829;28;20025;-53
2024/03/13 00:54:44;;;;;;;12.63;5.43;;;8.60;99.90;;;;;;5050909;28;20063;-54
2024/03/13 00:57:11;;;;;;;11.73;4.40;;;8.50;99.90;;;;;;5050895;28;20039;-52
2024/03/13 00:59:36;;;;;;;10.63;4.70;;;8.60;99.90;;;;;;5050738;28;20041;-54
2024/03/13 01:02:03;;;;;;;12.47;5.50;;;8.60;99.90;;;;;;5050873;28;20071;-53
2024/03/13 01:04:29;;;;;;;13.23;5.13;;;8.60;99.90;;;;;;5050383;28;20083;-53
2024/03/13 01:06:55;;;;;;;12.70;5.10;;;8.60;99.90;;;;;;5050606;28;20433;-52
2024/03/13 01:09:23;;;;;;;15.53;6.27;;;8.60;99.90;;;;;;5050613;28;20032;-52
2024/03/13 01:11:49;;;;;;;13.77;5.43;;;8.50;99.90;;;;;;5050595;28;20039;-54
2024/03/13 01:14:19;;;;;;;13.97;6.50;;;8.50;99.90;;;;;;5050480;28;20036;-53
2024/03/13 01:16:47;;;;;;;14.03;5.30;;;8.50;99.90;;;;;;5050587;28;20025;-54
2024/03/13 01:19:12;;;;;;;14.67;5.43;;;8.50;99.90;;;;;;5050371;28;20056;-53
2024/03/13 01:21:38;;;;;;;14.60;5.80;;;8.50;99.90;;;;;;5050450;28;20029;-52
2024/03/13 01:24:04;;;;;;;13.23;5.43;;;8.50;99.90;;;;;;5050091;28;20033;-52
2024/03/13 01:26:34;;;;;;;13.50;6.03;;;8.50;99.90;;;;;;5050194;28;20078;-49
2024/03/13 01:29:00;;;;;;;14.70;5.90;;;8.50;99.90;;;;;;5050673;28;20037;-52
2024/03/13 01:31:26;;;;;;;15.53;5.93;;;8.50;99.90;;;;;;5050182;28;20175;-53
2024/03/13 01:33:52;;;;;;;13.90;6.33;;;8.60;99.90;;;;;;5032344;28;20048;-49
2024/03/13 01:37:55;;;;;;;14.53;6.63;;;8.50;99.90;;;;;;5050193;28;20505;-53
2024/03/13 01:39:03;;;;;;;13.07;5.40;;;8.50;99.90;;;;;;5050054;28;20115;-54
2024/03/13 02:03:11;;;;;;;18.33;6.83;;;8.20;99.90;;;;;;5054007;28;20033;-51
2024/03/13 02:05:38;;;;;;;19.27;7.20;;;8.10;99.90;;;;;;5054034;28;20032;-53
2024/03/13 02:08:05;;;;;;;13.90;6.87;;;8.10;99.90;;;;;;5054138;28;20025;-54
2024/03/13 02:10:31;;;;;;;17.67;6.87;;;8.10;99.90;;;;;;5054078;28;20028;-53
2024/03/13 02:13:10;;;;;;;15.27;6.40;;;8.10;99.90;;;;;;5053928;28;20118;-53
2024/03/13 02:15:40;;;;;;;15.95;6.05;;;8.10;99.90;;;;;;5053975;28;20087;-50
2024/03/13 02:18:16;;;;;;;16.47;5.90;;;8.10;99.90;;;;;;5053810;28;20068;-52
2024/03/13 02:20:43;;;;;;;14.70;6.10;;;8.10;99.90;;;;;;5053514;28;20029;-52
2024/03/13 02:23:08;;;;;;;14.97;6.17;;;8.10;99.90;;;;;;5053659;28;20470;-53
2024/03/13 02:25:34;;;;;;;17.73;6.13;;;8.10;99.90;;;;;;5053541;28;20104;-53
2024/03/13 02:28:03;;;;;;;14.73;6.13;;;8.10;99.90;;;;;;5053855;28;20025;-49
2024/03/13 02:30:29;;;;;;;18.02;5.95;;;8.10;99.90;;;;;;5053582;28;20324;-54
2024/03/13 02:32:57;;;;;;;14.13;5.10;;;8.10;99.90;;;;;;5053601;28;20075;-54
2024/03/13 02:35:23;;;;;;;12.13;4.87;;;8.10;99.90;;;;;;5053717;28;20055;-54
2024/03/13 02:37:48;;;;;;;12.30;5.23;;;8.10;99.90;;;;;;5053874;28;20393;-52
2024/03/13 02:40:16;;;;;;;13.33;5.47;;;8.10;99.90;;;;;;5053799;28;20033;-52
2024/03/13 02:42:45;;;;;;;16.97;5.53;;;8.10;99.90;;;;;;5053326;28;20033;-50
2024/03/13 02:45:13;;;;;;;10.20;3.97;;;8.10;99.90;;;;;;5053311;28;20120;-53
2024/03/13 02:47:42;;;;;;;12.70;4.90;;;8.10;99.90;;;;;;5053444;28;20075;-52
2024/03/13 02:50:14;;;;;;;;;;;8.10;99.90;;;;;;5053816;28;20029;-51
2024/03/13 02:52:40;;;;;;;9.13;4.30;;;8.10;99.90;;;;;;5035352;28;20346;-53
2024/03/13 02:55:13;;;;;;;11.47;4.70;;;8.10;99.90;;;;;;5053136;28;20089;-53
2024/03/13 02:57:39;;;;;;;10.53;4.10;;;8.00;99.90;;;;;;5053457;28;20029;-53
2024/03/13 03:00:06;;;;;;;9.00;3.57;;;8.10;99.90;;;;;;5052950;28;20382;-52
2024/03/13 03:02:35;;;;;;;10.03;4.43;;;8.10;99.90;;;;;;5053059;28;20036;-54
2024/03/13 03:05:03;;;;;;;12.23;4.10;;;8.10;99.90;;;;;;5052996;28;20053;-53
2024/03/13 03:07:29;;;;;;;10.30;4.13;;;8.10;99.90;;;;;;5053134;28;20342;-51
2024/03/13 03:09:54;;;;;;;9.80;4.00;;;8.10;99.90;;;;;;5051902;28;20033;-52
2024/03/13 03:12:21;;;;;;;8.93;4.03;;;8.10;99.90;;;;;;5053040;28;20036;-51
2024/03/13 03:14:46;;;;;;;7.20;3.47;;;8.20;99.90;;;;;;5034929;28;20386;-51
2024/03/13 03:17:14;;;;;;;9.03;4.03;;;8.20;99.90;;;;;;5053040;28;20029;-49
2024/03/13 03:19:40;;;;;;;8.43;3.90;;;8.20;99.90;;;;;;5053093;28;20062;-50
2024/03/13 03:22:06;;;;;;;10.97;4.47;;;8.20;99.90;;;;;;5052853;28;20119;-50
2024/03/13 03:24:31;;;;;;;8.77;3.70;;;8.20;99.90;;;;;;5052523;28;20040;-54
2024/03/13 03:27:00;;;;;;;7.27;3.43;;;8.10;99.90;;;;;;5039756;28;20033;-49
2024/03/13 03:29:29;;;;;;;7.63;3.92;;;8.10;99.90;;;;;;5049897;28;20349;-53
2024/03/13 03:31:54;;;;;;;6.43;3.00;;;8.10;99.90;;;;;;5050778;28;20037;-53
2024/03/13 03:34:24;;;;;;;7.80;3.77;;;8.20;99.90;;;;;;5051369;28;20087;-52
2024/03/13 03:36:49;;;;;;;7.97;3.77;;;8.10;99.90;;;;;;5051073;28;20086;-53
2024/03/13 03:39:15;;;;;;;7.73;3.37;;;8.10;99.90;;;;;;5051205;28;20040;-53
2024/03/13 03:41:47;;;;;;;10.53;3.93;;;8.10;99.90;;;;;;5051547;28;20039;-54
2024/03/13 03:44:13;;;;;;;6.67;3.57;;;8.10;99.90;;;;;;5051485;28;20040;-54
2024/03/13 03:46:40;;;;;;;8.13;3.80;;;8.20;99.90;;;;;;5052544;28;20075;-51
2024/03/13 03:49:08;;;;;;;8.83;3.63;;;8.10;99.90;;;;;;5052811;28;20382;-53
2024/03/13 03:51:34;;;;;;;10.75;3.55;;;8.20;99.90;;;;;;5052454;28;20021;-53
2024/03/13 03:54:00;;;;;;;7.03;3.10;;;8.20;99.90;;;;;;5052557;28;20033;-54
2024/03/13 03:56:27;;;;;;;7.47;3.80;;;8.20;99.90;;;;;;5052093;28;20025;-51
2024/03/13 03:58:57;;;;;;;7.30;3.40;;;8.20;99.90;;;;;;5052345;28;20186;-53
2024/03/13 04:01:24;;;;;;;6.63;3.40;;;8.20;99.90;;;;;;5052178;28;20033;-54
2024/03/13 04:03:50;;;;;;;7.17;4.00;;;8.20;99.90;;;;;;5052065;28;20128;-51
2024/03/13 04:06:16;;;;;;;7.43;3.47;;;8.20;99.90;;;;;;5051929;28;20138;-50
2024/03/13 04:08:44;;;;;;;7.67;3.33;;;8.20;99.90;;;;;;5052033;28;20394;-54
2024/03/13 04:11:11;;;;;;;8.13;3.50;;;8.20;99.90;;;;;;5051980;28;20394;-53
2024/03/13 04:13:39;;;;;;;5.03;2.80;;;8.30;99.90;;;;;;5051876;28;20115;-54
2024/03/13 04:16:07;;;;;;;6.37;3.07;;;8.30;99.90;;;;;;5051683;28;20029;-52
2024/03/13 04:18:33;;;;;;;6.83;3.40;;;8.30;99.90;;;;;;5052045;28;20036;-51
2024/03/13 04:21:00;;;;;;;8.03;3.30;;;8.30;99.90;;;;;;5051400;28;20029;-50
2024/03/13 04:23:26;;;;;;;6.73;3.30;;;8.20;99.90;;;;;;5051506;28;20090;-53
2024/03/13 04:25:52;;;;;;;7.10;3.60;;;8.30;99.90;;;;;;5033741;28;20037;-53
2024/03/13 04:28:18;;;;;;;6.47;3.50;;;8.30;99.90;;;;;;5033829;28;20056;-49
2024/03/13 04:30:46;;;;;;;5.50;3.13;;;8.30;99.90;;;;;;5051608;28;20028;-50
2024/03/13 04:33:12;;;;;;;6.80;3.17;;;8.30;99.90;;;;;;5051626;28;20045;-52
2024/03/13 04:35:37;;;;;;;7.17;3.57;;;8.30;99.90;;;;;;5051040;28;20119;-54
2024/03/13 04:38:04;;;;;;;6.50;3.23;;;8.30;99.90;;;;;;5051159;28;20124;-52
2024/03/13 04:40:29;;;;;;;6.47;3.23;;;8.30;99.90;;;;;;5051055;28;20040;-54
2024/03/13 04:42:57;;;;;;;7.37;3.57;;;8.30;99.90;;;;;;5051322;28;20029;-54
2024/03/13 04:45:23;;;;;;;6.07;3.57;;;8.30;99.90;;;;;;5051058;28;20032;-54
2024/03/13 04:47:49;;;;;;;6.47;3.27;;;8.30;99.90;;;;;;5051252;28;20444;-51
2024/03/13 04:50:15;;;;;;;6.33;3.53;;;8.20;99.90;;;;;;5051037;28;20141;-50
2024/03/13 04:52:45;;;;;;;7.43;4.13;;;8.30;99.90;;;;;;5050820;28;20090;-52
2024/03/13 04:55:10;;;;;;;6.97;3.90;;;8.30;99.90;;;;;;5050796;28;20450;-53
2024/03/13 04:57:38;;;;;;;6.47;3.30;;;8.30;99.90;;;;;;5051105;28;20040;-53
2024/03/13 05:00:05;;;;;;;6.60;3.40;;;8.30;99.90;;;;;;5050627;28;20060;-53
2024/03/13 05:02:30;;;;;;;7.97;3.73;;;8.30;99.90;;;;;;5050882;28;20093;-53
2024/03/13 05:04:57;;;;;;;7.03;3.53;;;8.30;99.90;;;;;;5033799;28;20041;-52
2024/03/13 05:07:23;;;;;;;6.50;3.50;;;8.30;99.90;;;;;;5050844;28;20029;-53
2024/03/13 05:09:49;;;;;;;6.73;3.30;;;8.30;99.90;;;;;;5050715;28;20040;-52
2024/03/13 05:12:15;;;;;;;6.97;3.37;;;8.30;99.90;;;;;;5050792;28;20068;-52
2024/03/13 05:14:42;;;;;;;7.50;3.60;;;8.30;99.90;;;;;;5050696;28;20064;-52
2024/03/13 05:17:09;;;;;;;6.47;3.10;;;8.30;99.90;;;;;;5051248;28;20552;-54
2024/03/13 05:19:35;;;;;;;6.63;3.47;;;8.40;99.90;;;;;;5051137;28;20037;-54
2024/03/13 05:22:01;;;;;;;7.00;3.63;;;8.30;99.90;;;;;;5051212;28;20039;-54
2024/03/13 05:24:29;;;;;;;6.53;3.47;;;8.40;99.90;;;;;;5050938;28;20371;-53
2024/03/13 05:26:54;;;;;;;7.87;3.80;;;8.30;99.90;;;;;;5050691;28;20448;-53
2024/03/13 05:29:20;;;;;;;6.17;3.47;;;8.20;99.90;;;;;;5050656;28;20041;-54
2024/03/13 05:31:49;;;;;;;6.97;3.63;;;8.30;99.90;;;;;;5050515;28;20078;-50
2024/03/13 05:34:16;;;;;;;6.85;3.85;;;8.30;99.90;;;;;;5050263;28;20032;-54
2024/03/13 05:36:42;;;;;;;7.40;3.60;;;8.30;99.90;;;;;;5050647;28;20087;-54
2024/03/13 05:39:12;;;;;;;9.90;4.40;;;8.30;99.90;;;;;;5050699;28;20029;-53
2024/03/13 05:41:38;;;;;;;12.10;5.97;;;8.40;99.90;;;;;;5050408;28;20040;-53
2024/03/13 05:44:04;;;;;;;9.27;4.33;;;8.30;99.90;;;;;;5050316;28;20059;-54
2024/03/13 05:46:30;;;;;;;6.63;3.57;;;8.40;99.90;;;;;;5050774;28;20428;-54
2024/03/13 05:48:55;;;;;;;6.60;3.80;;;8.40;99.90;;;;;;5032619;28;20096;-54
2024/03/13 05:51:21;;;;;;;6.17;3.37;;;8.40;99.90;;;;;;5050469;28;20044;-54
2024/03/13 05:53:47;;;;;;;6.00;3.40;;;8.40;99.90;;;;;;5050566;28;20025;-54
2024/03/13 05:56:13;;;;;;;6.10;3.77;;;8.40;99.90;;;;;;5032590;28;20548;-50
2024/03/13 05:58:41;;;;;;;7.37;3.87;;;8.40;99.90;;;;;;5050713;28;20036;-53
2024/03/13 06:01:11;;;;;;;7.47;3.60;;;8.50;99.90;;;;;;5050133;28;20544;-53
2024/03/13 06:03:36;;;;;;;8.00;4.03;;;8.50;99.90;;;;;;5050023;28;20032;-54
2024/03/13 06:06:02;;;;;;;7.37;3.80;;;8.40;99.90;;;;;;5050289;28;20078;-53
2024/03/13 06:08:30;;;;;;;7.67;3.97;;;8.40;99.90;;;;;;5050479;28;20105;-51
2024/03/13 06:10:55;;;;;;;7.30;3.90;;;8.40;99.90;;;;;;5050129;28;20032;-52
2024/03/13 06:13:21;;;;;;;7.63;4.10;;;8.40;99.90;;;;;;5049811;28;20033;-52
2024/03/13 06:15:46;;;;;;;8.03;3.80;;;8.40;99.90;;;;;;5031689;28;20064;-50
2024/03/13 06:18:13;;;;;;;8.73;4.10;;;8.50;99.90;;;;;;5050277;28;20155;-50
2024/03/13 06:20:38;;;;;;;11.57;4.60;;;8.50;99.90;;;;;;5050126;28;20040;-50
2024/03/13 06:23:05;;;;;;;9.77;5.07;;;8.50;99.90;;;;;;5048697;28;20029;-50
2024/03/13 06:25:38;;;;;;;8.90;4.47;;;8.60;99.90;;;;;;5050265;28;20037;-51
2024/03/13 06:29:56;;;;;;;11.70;5.47;;;8.60;99.90;;;;;;5050141;28;20079;-54
2024/03/13 06:30:51;;;;;;;7.80;4.30;;;8.60;99.90;;;;;;5050180;28;20147;-55
2024/03/13 06:33:17;;;;;;;10.13;5.07;;;8.60;99.90;;;;;;5050292;28;20120;-55
2024/03/13 06:35:43;;;;;;;11.13;5.07;;;8.60;99.90;;;;;;5049886;28;20121;-55
2024/03/13 06:38:08;;;;;;;9.57;4.50;;;8.60;99.90;;;;;;5049927;28;20375;-54
2024/03/13 06:40:34;;;;;;;8.83;4.53;;;8.60;99.90;;;;;;5049970;28;20033;-54
2024/03/13 06:42:59;;;;;;;8.37;4.23;;;8.70;99.90;;;;;;5049449;28;20037;-54
2024/03/13 06:45:25;;;;;;;9.17;4.17;;;8.60;99.90;;;;;;5053592;28;20108;-54
2024/03/13 06:47:51;;;;;;;8.10;4.40;;;8.70;99.90;;;;;;5053542;28;20112;-54
2024/03/13 06:50:17;;;;;;;9.83;4.90;;;8.80;99.90;;;;;;5053407;28;20115;-52
2024/03/13 06:52:43;;;;;;;9.77;4.90;;;8.80;99.90;;;;;;5053461;28;20040;-55
2024/03/13 06:55:09;;;;;;;9.57;4.60;;;8.80;99.90;;;;;;5052563;28;20025;-52
2024/03/13 06:57:35;;;;;;;11.43;4.83;;;8.80;99.90;;;;;;5053186;28;20040;-52
2024/03/13 07:00:01;;;;;;;9.27;4.53;;;8.80;99.90;;;;;;5053616;28;20034;-54
2024/03/13 07:02:28;;;;;;;7.73;4.67;;;8.90;99.90;;;;;;5053576;28;20061;-55
2024/03/13 07:04:54;;;;;;;10.40;4.17;;;8.80;99.90;;;;;;5053432;28;20423;-54
2024/03/13 07:07:19;;;;;;;9.03;4.20;;;8.80;99.90;;;;;;5053303;28;20029;-55
2024/03/13 07:09:45;;;;;;;7.50;3.83;;;8.90;99.90;;;;;;5053053;28;20025;-54
2024/03/13 07:12:13;;;;;;;8.63;4.30;;;8.90;99.90;;;;;;5052925;28;20044;-52
2024/03/13 07:14:39;;;;;;;8.37;4.00;;;9.00;99.90;;;;;;5052854;28;20029;-54
2024/03/13 07:17:04;;;;;;;9.20;4.17;;;9.00;99.90;;;;;;5053170;28;20056;-52
2024/03/13 07:19:33;;;;;;;11.00;4.70;;;9.00;99.90;;;;;;5052710;28;20090;-54
2024/03/13 07:22:00;;;;;;;8.55;3.80;;;9.10;99.90;;;;;;5052749;28;20039;-51
2024/03/13 07:24:26;;;;;;;10.53;4.30;;;9.10;99.90;;;;;;5034437;28;20037;-54
2024/03/13 07:26:52;;;;;;;8.40;4.00;;;9.10;99.90;;;;;;5052118;28;20091;-54
2024/03/13 07:29:18;;;;;;;8.90;4.67;;;9.20;99.90;;;;;;5052216;28;20029;-53
2024/03/13 07:31:43;;;;;;;9.53;4.60;;;9.20;99.90;;;;;;5052114;28;20039;-50
2024/03/13 07:34:09;;;;;;;8.60;4.20;;;9.20;99.90;;;;;;5052153;28;20037;-53
2024/03/13 07:36:37;;;;;;;9.80;4.73;;;9.20;99.90;;;;;;5034209;28;20041;-54
2024/03/13 07:39:04;;;;;;;7.97;4.07;;;9.30;99.90;;;;;;5052230;28;20031;-52
2024/03/13 07:41:33;;;;;;;7.77;3.90;;;9.30;99.90;;;;;;5051927;28;20037;-50
2024/03/13 07:43:59;;;;;;;8.85;4.32;;;9.40;99.90;;;;;;5052094;28;20037;-50
2024/03/13 07:46:25;;;;;;;11.63;5.63;;;9.40;99.90;;;;;;5051874;28;20043;-51
2024/03/13 07:48:51;;;;;;;11.17;5.17;;;9.40;99.90;;;;;;5052076;28;20027;-51
2024/03/13 07:51:16;;;;;;;12.13;5.33;;;9.50;99.90;;;;;;5033917;28;20108;-50
2024/03/13 07:53:42;;;;;;;9.70;5.30;;;9.60;99.90;;;;;;5051934;28;20025;-49
2024/03/13 07:56:08;;;;;;;12.27;6.00;;;9.50;99.90;;;;;;5051251;28;20493;-51
2024/03/13 07:58:34;;;;;;;9.90;4.70;;;9.60;99.90;;;;;;5051910;28;20397;-51
2024/03/13 08:01:01;;;;;;;10.13;4.77;;;9.60;99.90;;;;;;5051828;28;20033;-53
2024/03/13 08:03:27;;;;;;;9.40;4.77;;;9.60;99.90;;;;;;5051619;28;20037;-51
2024/03/13 08:05:55;;;;;;;10.23;4.80;;;9.70;99.90;;;;;;5051950;28;20036;-53
2024/03/13 08:08:21;;;;;;;8.40;4.07;;;9.70;99.90;;;;;;5051532;28;20032;-50
2024/03/13 08:10:46;;;;;;;8.93;4.03;;;9.60;99.90;;;;;;5051496;28;20036;-50
2024/03/13 08:13:12;;;;;;;10.83;4.83;;;9.60;99.90;;;;;;5051466;28;20025;-50
2024/03/13 08:15:38;;;;;;;10.77;5.33;;;9.70;99.90;;;;;;5051310;28;20079;-50
2024/03/13 08:18:05;;;;;;;10.40;5.13;;;9.70;99.90;;;;;;5051523;28;20086;-50
2024/03/13 08:20:30;;;;;;;11.37;5.83;;;9.70;99.90;;;;;;5051240;28;20120;-51
2024/03/13 08:22:57;;;;;;;11.47;5.03;;;9.70;99.90;;;;;;5051149;28;20051;-52
2024/03/13 08:25:23;;;;;;;34.87;16.60;;;9.70;99.90;;;;;;5051155;28;20048;-52
2024/03/13 08:27:51;;;;;;;15.00;7.47;;;9.70;99.90;;;;;;5051464;28;20021;-53
2024/03/13 08:30:18;;;;;;;18.50;8.35;;;9.70;99.90;;;;;;5050763;28;20143;-50
2024/03/13 08:32:44;;;;;;;12.67;5.43;;;9.80;99.90;;;;;;5051391;28;20037;-50
2024/03/13 08:35:10;;;;;;;12.47;5.23;;;9.80;99.90;;;;;;5051372;28;20029;-54
2024/03/13 08:37:36;;;;;;;13.27;5.77;;;9.80;99.90;;;;;;5051281;28;20051;-52
2024/03/13 08:40:07;;;;;;;14.67;6.03;;;9.90;99.90;;;;;;5051011;28;20432;-51
2024/03/13 08:42:34;;;;;;;10.57;5.27;;;9.90;99.90;;;;;;5051237;28;20036;-54
2024/03/13 08:45:01;;;;;;;11.57;4.70;;;9.90;99.90;;;;;;5051151;28;20064;-54
2024/03/13 08:47:29;;;;;;;14.20;5.77;;;10.00;99.90;;;;;;5051006;28;20068;-54
2024/03/13 08:49:55;;;;;;;13.67;6.27;;;10.00;99.90;;;;;;5050779;28;20044;-54
2024/03/13 08:52:21;;;;;;;13.23;6.10;;;10.00;99.90;;;;;;5050831;28;20028;-54
2024/03/13 08:54:48;;;;;;;15.30;6.87;;;10.00;99.90;;;;;;5050742;28;20494;-55
2024/03/13 08:57:13;;;;;;;13.90;6.53;;;10.00;99.90;;;;;;5050733;28;20129;-54
2024/03/13 08:59:42;;;;;;;16.40;7.00;;;10.10;99.90;;;;;;5050923;28;20116;-54
2024/03/13 09:02:09;;;;;;;16.50;7.25;;;10.10;99.90;;;;;;5050811;28;20200;-51
2024/03/13 09:04:34;;;;;;;18.63;7.73;;;10.20;99.90;;;;;;5032544;28;20040;-52
2024/03/13 09:07:03;;;;;;;18.60;7.63;;;10.20;99.90;;;;;;5049861;28;20028;-55
2024/03/13 09:09:29;;;;;;;20.23;8.00;;;10.20;99.90;;;;;;5050445;28;20028;-51
2024/03/13 09:11:55;;;;;;;17.60;7.50;;;10.30;99.90;;;;;;5050533;28;20407;-54
2024/03/13 09:14:23;;;;;;;18.07;7.23;;;10.30;99.90;;;;;;5050285;28;20569;-55
2024/03/13 09:16:50;;;;;;;23.73;7.78;;;10.40;99.90;;;;;;5050506;28;20033;-52
2024/03/13 09:19:16;;;;;;;28.77;9.20;;;10.40;99.90;;;;;;5050218;28;20055;-52
2024/03/13 09:21:48;;;;;;;19.47;8.97;;;10.50;99.90;;;;;;5050395;28;20484;-53
2024/03/13 09:24:15;;;;;;;23.83;8.20;;;10.60;99.90;;;;;;5050110;28;20051;-54
2024/03/13 09:26:40;;;;;;;23.90;10.03;;;10.70;99.90;;;;;;5048072;28;20033;-51
2024/03/13 09:29:06;;;;;;;24.57;8.77;;;10.80;99.90;;;;;;5031095;28;20167;-54
2024/03/13 09:31:37;;;;;;;24.77;8.93;;;10.90;99.90;;;;;;5030549;28;20041;-50
2024/03/13 09:34:03;;;;;;;24.37;9.20;;;11.00;99.90;;;;;;5031088;28;20037;-50
2024/03/13 09:36:28;;;;;;;22.07;8.17;;;11.00;99.90;;;;;;5030769;28;20223;-54
2024/03/13 09:38:54;;;;;;;23.17;8.73;;;11.10;99.90;;;;;;5030730;28;20124;-54
2024/03/13 09:41:20;;;;;;;23.00;9.20;;;11.10;99.90;;;;;;5030490;28;20402;-52
2024/03/13 09:43:46;;;;;;;22.30;8.23;;;11.10;99.90;;;;;;5030405;28;20026;-52
2024/03/13 09:46:14;;;;;;;19.67;8.10;;;11.10;99.90;;;;;;5030169;28;20411;-54
2024/03/13 09:48:42;;;;;;;18.10;7.27;;;11.20;99.90;;;;;;5012748;28;20492;-50
2024/03/13 09:51:09;;;;;;;17.43;7.73;;;11.20;99.90;;;;;;5030350;28;20064;-53
2024/03/13 09:53:36;;;;;;;17.10;7.83;;;11.30;99.90;;;;;;5030204;28;20042;-55
2024/03/13 09:56:03;;;;;;;20.10;7.67;;;11.30;99.90;;;;;;5030121;28;20163;-55
2024/03/13 09:58:30;;;;;;;21.30;7.10;;;11.30;99.90;;;;;;5030379;28;20046;-54
2024/03/13 10:01:01;;;;;;;16.43;6.97;;;11.30;99.90;;;;;;5029883;28;20036;-53
2024/03/13 10:03:33;;;;;;;21.43;7.87;;;11.30;99.90;;;;;;5029994;28;20033;-54
2024/03/13 10:06:12;;;;;;;18.77;7.80;;;11.40;99.90;;;;;;5030798;28;20032;-50
2024/03/13 10:08:42;;;;;;;;;;;11.40;99.90;;;;;;5031373;28;20698;-53
2024/03/13 10:11:14;;;;;;;20.42;7.63;;;11.40;99.90;;;;;;5030879;28;20281;-52
2024/03/13 10:13:43;;;;;;;15.30;5.88;;;11.50;99.90;;;;;;5013718;28;20048;-54
2024/03/13 10:16:10;;;;;;;;;;;11.40;99.90;;;;;;5031908;28;20505;-53
2024/03/13 10:18:41;;;;;;;15.68;7.43;;;11.40;99.90;;;;;;5031889;28;20289;-54
2024/03/13 10:21:13;;;;;;;15.40;6.57;;;11.50;99.90;;;;;;5035023;28;20453;-54
2024/03/13 10:23:42;;;;;;;18.10;6.65;;;11.50;99.90;;;;;;5035482;28;20037;-54
2024/03/13 10:26:10;;;;;;;18.33;7.13;;;11.50;99.90;;;;;;5035093;28;20033;-54
2024/03/13 10:28:36;;;;;;;19.27;8.20;;;11.50;99.90;;;;;;5035082;28;20417;-52
2024/03/13 10:31:02;;;;;;;17.10;7.45;;;11.60;99.90;;;;;;5034923;28;20049;-54
2024/03/13 10:33:30;;;;;;;18.58;7.82;;;11.70;99.90;;;;;;5034855;28;20045;-53
2024/03/13 10:35:56;;;;;;;17.15;7.30;;;11.80;99.90;;;;;;5017115;28;20034;-50
2024/03/13 10:38:23;;;;;;;16.83;6.95;;;12.00;99.90;;;;;;5034930;28;20088;-55
2024/03/13 10:40:49;;;;;;;18.85;7.80;;;12.10;99.90;;;;;;5034763;28;20066;-55
2024/03/13 10:43:15;;;;;;;13.15;6.75;;;12.20;99.90;;;;;;5016826;28;20123;-55
2024/03/13 10:45:47;;;;;;;15.52;6.70;;;12.20;99.90;;;;;;5034680;28;20033;-53
2024/03/13 10:48:13;;;;;;;14.38;6.65;;;12.20;99.90;;;;;;5034774;28;20029;-55
2024/03/13 10:50:40;;;;;;;14.00;6.53;;;12.30;99.90;;;;;;5034593;28;20026;-55
2024/03/13 10:53:07;;;;;;;13.20;6.20;;;12.30;99.90;;;;;;5034486;28;20030;-55
2024/03/13 10:55:33;;;;;;;15.00;6.90;;;12.20;99.90;;;;;;5017053;28;20040;-55
2024/03/13 10:57:58;;;;;;;14.90;6.72;;;12.20;99.90;;;;;;5034549;28;20061;-53
2024/03/13 11:00:28;;;;;;;15.10;6.63;;;12.20;99.90;;;;;;5016578;28;20095;-52
2024/03/13 11:02:54;;;;;;;12.40;6.53;;;12.30;99.90;;;;;;5034372;28;20037;-54
2024/03/13 11:05:20;;;;;;;13.15;5.57;;;12.40;99.90;;;;;;5034251;28;20056;-53
2024/03/13 11:07:47;;;;;;;11.82;5.03;;;12.60;99.90;;;;;;5034415;28;20371;-53
2024/03/13 11:10:15;;;;;;;12.57;5.88;;;12.60;99.90;;;;;;5034220;28;20108;-50
2024/03/13 11:12:45;;;;;;;10.27;4.72;;;12.60;99.90;;;;;;5034092;28;20045;-53
2024/03/13 11:15:20;;;;;;;10.25;5.00;;;12.60;99.90;;;;;;5034200;28;20045;-50
2024/03/13 11:17:53;;;;;;;8.57;4.13;;;12.60;99.90;;;;;;5034300;28;20045;-52
2024/03/13 11:20:22;;;;;;;8.10;4.05;;;12.50;99.90;;;;;;5034040;28;20041;-53
2024/03/13 11:22:59;;;;;;;9.43;4.13;;;12.50;99.90;;;;;;5034329;28;20480;-51
2024/03/13 11:25:25;;;;;;;8.07;4.55;;;12.50;99.90;;;;;;5034018;28;20057;-54
2024/03/13 11:27:56;;;;;;;11.20;4.38;;;12.40;99.90;;;;;;5034040;28;20033;-54
2024/03/13 11:30:24;;;;;;;9.30;4.30;;;12.40;99.90;;;;;;5032738;28;20025;-53
2024/03/13 11:32:53;;;;;;;9.27;4.25;;;12.40;99.90;;;;;;5033756;28;20090;-53
2024/03/13 11:35:20;;;;;;;9.65;4.18;;;12.40;99.90;;;;;;5033822;28;20141;-50
2024/03/13 11:37:49;;;;;;;11.88;4.60;;;12.40;99.90;;;;;;5034010;28;20105;-54
2024/03/13 11:40:15;;;;;;;7.68;4.00;;;12.40;99.90;;;;;;5033600;28;20026;-52
2024/03/13 11:42:44;;;;;;;10.32;4.78;;;12.30;99.90;;;;;;5033563;28;20113;-50
2024/03/13 11:45:15;;;;;;;7.72;3.70;;;12.30;99.90;;;;;;5033539;28;20042;-49
2024/03/13 11:47:44;;;;;;;8.05;4.00;;;12.20;99.90;;;;;;5033675;28;20037;-54
2024/03/13 11:50:10;;;;;;;9.63;4.25;;;12.20;99.90;;;;;;5015895;28;20029;-51
2024/03/13 11:52:37;;;;;;;7.63;3.90;;;12.10;99.90;;;;;;5033384;28;20079;-53
2024/03/13 11:55:21;;;;;;;11.02;4.15;;;12.10;99.90;;;;;;5033391;28;20116;-54
2024/03/13 11:57:46;;;;;;;8.70;4.10;;;12.20;99.90;;;;;;5033296;28;20113;-54
2024/03/13 12:00:23;;;;;;;7.97;3.75;;;12.30;99.90;;;;;;5033196;28;20561;-53
2024/03/13 12:02:49;;;;;;;7.45;3.92;;;12.40;99.90;;;;;;5033436;28;20620;-53
2024/03/13 12:05:33;;;;;;;8.77;3.60;;;12.40;99.90;;;;;;5032986;28;20037;-54
2024/03/13 12:08:00;;;;;;;6.70;3.47;;;12.40;99.90;;;;;;5033213;28;20509;-53
2024/03/13 12:10:27;;;;;;;18.85;9.45;;;12.40;99.90;;;;;;5033097;28;20041;-51
2024/03/13 12:12:53;;;;;;;13.10;5.57;;;12.40;99.90;;;;;;5033060;28;20073;-50
2024/03/13 12:15:20;;;;;;;13.10;5.88;;;12.40;99.90;;;;;;5033059;28;20078;-54
2024/03/13 12:17:55;;;;;;;12.40;6.10;;;12.40;99.90;;;;;;5033011;28;20039;-54
2024/03/13 12:20:34;;;;;;;7.53;3.58;;;12.40;99.90;;;;;;5032858;28;20040;-54
2024/03/13 12:23:02;;;;;;;13.30;3.95;;;12.30;99.90;;;;;;5032781;28;20079;-51
2024/03/13 12:25:28;;;;;;;9.10;3.92;;;12.20;99.90;;;;;;5014964;28;20467;-52
2024/03/13 12:27:54;;;;;;;6.65;3.42;;;12.30;99.90;;;;;;5032857;28;20082;-54
2024/03/13 12:30:22;;;;;;;7.55;3.80;;;12.20;99.90;;;;;;5032581;28;20049;-54
2024/03/13 12:32:50;;;;;;;8.02;4.13;;;12.20;99.90;;;;;;5032602;28;20029;-54
2024/03/13 12:35:17;;;;;;;9.63;3.83;;;12.10;99.90;;;;;;5032512;28;20033;-53
2024/03/13 12:37:48;;;;;;;8.07;3.60;;;12.10;99.90;;;;;;5032845;28;20029;-50
2024/03/13 12:40:16;;;;;;;10.30;4.18;;;12.00;99.90;;;;;;5032520;28;20541;-54
2024/03/13 12:42:45;;;;;;;8.23;4.05;;;12.00;99.90;;;;;;5032295;28;20148;-54
2024/03/13 12:45:11;;;;;;;8.55;4.25;;;12.00;99.90;;;;;;5032518;28;20068;-54
2024/03/13 12:47:38;;;;;;;9.48;4.53;;;12.00;99.90;;;;;;5032305;28;20120;-53
2024/03/13 12:50:06;;;;;;;10.55;5.13;;;12.00;99.90;;;;;;5032332;28;20072;-50
2024/03/13 12:52:37;;;;;;;11.15;5.18;;;12.10;99.90;;;;;;5032815;28;20033;-52
2024/03/13 12:55:08;;;;;;;9.90;4.75;;;12.10;99.90;;;;;;5032176;28;20033;-54
2024/03/13 12:57:38;;;;;;;10.90;4.97;;;12.10;99.90;;;;;;5032425;28;20033;-55
2024/03/13 13:00:14;;;;;;;10.00;4.93;;;12.10;99.90;;;;;;5032254;28;20045;-50
2024/03/13 13:02:45;;;;;;;11.23;5.65;;;12.20;99.90;;;;;;5032054;28;20072;-49
2024/03/13 13:05:12;;;;;;;10.25;5.22;;;12.20;99.90;;;;;;5032200;28;20299;-50
2024/03/13 13:07:55;;;;;;;10.77;5.35;;;12.20;99.90;;;;;;5032222;28;20400;-50
2024/03/13 13:10:21;;;;;;;10.88;5.63;;;12.20;99.90;;;;;;5031953;28;20056;-50